sensor_id;sensor_type;location;lat;lon;timestamp;temperature;humidity
38784;DHT22;24531;45.502;12.238;2023-12-22T00:01:47;6.80;99.90
38784;DHT22;24531;45.502;12.238;2023-12-22T00:04:12;6.90;99.90
38784;DHT22;24531;45.502;12.238;2023-12-22T00:06:40;6.90;99.90
38784;DHT22;24531;45.502;12.238;2023-12-22T00:09:06;6.90;99.90
38784;DHT22;24531;45.502;12.238;2023-12-22T00:11:31;6.90;99.90
38784;DHT22;24531;45.502;12.238;2023-12-22T00:13:57;6.90;99.90
38784;DHT22;24531;45.502;12.238;2023-12-22T00:16:22;6.90;99.90
38784;DHT22;24531;45.502;12.238;2023-12-22T00:18:48;7.00;99.90
38784;DHT22;24531;45.502;12.238;2023-12-22T00:21:13;6.90;99.90
38784;DHT22;24531;45.502;12.238;2023-12-22T00:23:39;6.90;99.90
38784;DHT22;24531;45.502;12.238;2023-12-22T00:26:08;6.80;99.90
38784;DHT22;24531;45.502;12.238;2023-12-22T00:28:33;7.00;99.90
38784;DHT22;24531;45.502;12.238;2023-12-22T00:30:59;7.00;99.90
38784;DHT22;24531;45.502;12.238;2023-12-22T00:33:25;7.00;99.90
38784;DHT22;24531;45.502;12.238;2023-12-22T00:35:51;7.00;99.90
38784;DHT22;24531;45.502;12.238;2023-12-22T00:38:17;6.90;99.90
38784;DHT22;24531;45.502;12.238;2023-12-22T00:40:43;7.00;99.90
38784;DHT22;24531;45.502;12.238;2023-12-22T00:43:08;7.00;99.90
38784;DHT22;24531;45.502;12.238;2023-12-22T00:45:34;7.00;99.90
38784;DHT22;24531;45.502;12.238;2023-12-22T00:47:59;7.00;99.90
38784;DHT22;24531;45.502;12.238;2023-12-22T00:50:25;6.90;99.90
38784;DHT22;24531;45.502;12.238;2023-12-22T00:52:51;7.00;99.90
38784;DHT22;24531;45.502;12.238;2023-12-22T00:55:16;7.00;99.90
38784;DHT22;24531;45.502;12.238;2023-12-22T00:57:42;7.00;99.90
38784;DHT22;24531;45.502;12.238;2023-12-22T01:00:08;6.90;99.90
38784;DHT22;24531;45.502;12.238;2023-12-22T01:02:38;6.80;99.90
38784;DHT22;24531;45.502;12.238;2023-12-22T01:05:04;6.90;99.90
38784;DHT22;24531;45.502;12.238;2023-12-22T01:07:29;6.90;99.90
38784;DHT22;24531;45.502;12.238;2023-12-22T01:09:56;6.90;99.90
38784;DHT22;24531;45.502;12.238;2023-12-22T01:12:21;7.00;99.90
38784;DHT22;24531;45.502;12.238;2023-12-22T01:14:47;7.00;99.90
38784;DHT22;24531;45.502;12.238;2023-12-22T01:17:14;6.90;99.90
38784;DHT22;24531;45.502;12.238;2023-12-22T01:19:40;6.90;99.90
38784;DHT22;24531;45.502;12.238;2023-12-22T01:22:05;7.00;99.90
38784;DHT22;24531;45.502;12.238;2023-12-22T01:24:31;7.00;99.90
38784;DHT22;24531;45.502;12.238;2023-12-22T01:26:56;6.90;99.90
38784;DHT22;24531;45.502;12.238;2023-12-22T01:29:22;6.80;99.90
38784;DHT22;24531;45.502;12.238;2023-12-22T01:31:48;6.80;99.90
38784;DHT22;24531;45.502;12.238;2023-12-22T01:34:13;6.90;99.90
38784;DHT22;24531;45.502;12.238;2023-12-22T01:36:39;6.90;99.90
38784;DHT22;24531;45.502;12.238;2023-12-22T01:39:04;7.00;99.90
38784;DHT22;24531;45.502;12.238;2023-12-22T01:41:30;6.90;99.90
38784;DHT22;24531;45.502;12.238;2023-12-22T01:43:55;6.90;99.90
38784;DHT22;24531;45.502;12.238;2023-12-22T01:46:21;7.10;99.90
38784;DHT22;24531;45.502;12.238;2023-12-22T01:48:47;7.00;99.90
38784;DHT22;24531;45.502;12.238;2023-12-22T01:51:13;6.90;99.90
38784;DHT22;24531;45.502;12.238;2023-12-22T01:53:39;7.00;99.90
38784;DHT22;24531;45.502;12.238;2023-12-22T01:56:05;7.10;99.90
38784;DHT22;24531;45.502;12.238;2023-12-22T01:58:33;7.10;99.90
38784;DHT22;24531;45.502;12.238;2023-12-22T02:01:00;7.10;99.90
38784;DHT22;24531;45.502;12.238;2023-12-22T02:03:27;7.10;99.90
38784;DHT22;24531;45.502;12.238;2023-12-22T02:05:53;7.10;99.90
38784;DHT22;24531;45.502;12.238;2023-12-22T02:08:19;7.10;99.90
38784;DHT22;24531;45.502;12.238;2023-12-22T02:10:46;7.10;99.90
38784;DHT22;24531;45.502;12.238;2023-12-22T02:13:12;7.20;99.90
38784;DHT22;24531;45.502;12.238;2023-12-22T02:15:39;7.20;99.90
38784;DHT22;24531;45.502;12.238;2023-12-22T02:18:06;7.20;99.90
38784;DHT22;24531;45.502;12.238;2023-12-22T02:20:33;7.20;99.90
38784;DHT22;24531;45.502;12.238;2023-12-22T02:22:59;7.30;99.90
38784;DHT22;24531;45.502;12.238;2023-12-22T02:25:24;7.30;99.90
38784;DHT22;24531;45.502;12.238;2023-12-22T02:27:57;7.30;99.90
38784;DHT22;24531;45.502;12.238;2023-12-22T02:30:29;7.30;99.90
38784;DHT22;24531;45.502;12.238;2023-12-22T02:32:59;7.30;99.90
38784;DHT22;24531;45.502;12.238;2023-12-22T02:35:28;7.40;99.90
38784;DHT22;24531;45.502;12.238;2023-12-22T02:37:56;7.30;99.90
38784;DHT22;24531;45.502;12.238;2023-12-22T02:40:23;7.40;99.90
38784;DHT22;24531;45.502;12.238;2023-12-22T02:42:51;7.40;99.90
38784;DHT22;24531;45.502;12.238;2023-12-22T02:45:18;7.20;99.90
38784;DHT22;24531;45.502;12.238;2023-12-22T02:47:44;7.00;99.90
38784;DHT22;24531;45.502;12.238;2023-12-22T02:50:10;6.70;99.90
38784;DHT22;24531;45.502;12.238;2023-12-22T02:52:37;6.60;99.90
38784;DHT22;24531;45.502;12.238;2023-12-22T02:55:03;6.70;99.90
38784;DHT22;24531;45.502;12.238;2023-12-22T02:57:29;6.70;99.90
38784;DHT22;24531;45.502;12.238;2023-12-22T02:59:54;6.70;99.90
38784;DHT22;24531;45.502;12.238;2023-12-22T03:02:20;6.80;99.90
38784;DHT22;24531;45.502;12.238;2023-12-22T03:04:46;7.00;99.90
38784;DHT22;24531;45.502;12.238;2023-12-22T03:07:12;7.20;99.90
38784;DHT22;24531;45.502;12.238;2023-12-22T03:09:39;7.10;99.90
38784;DHT22;24531;45.502;12.238;2023-12-22T03:12:06;7.00;99.90
38784;DHT22;24531;45.502;12.238;2023-12-22T03:14:32;7.10;99.90
38784;DHT22;24531;45.502;12.238;2023-12-22T03:17:02;7.20;99.90
38784;DHT22;24531;45.502;12.238;2023-12-22T03:19:28;7.20;99.90
38784;DHT22;24531;45.502;12.238;2023-12-22T03:21:53;7.20;99.90
38784;DHT22;24531;45.502;12.238;2023-12-22T03:24:19;7.30;99.90
38784;DHT22;24531;45.502;12.238;2023-12-22T03:26:46;7.20;99.90
38784;DHT22;24531;45.502;12.238;2023-12-22T03:29:11;7.10;99.90
38784;DHT22;24531;45.502;12.238;2023-12-22T03:31:37;7.10;99.90
38784;DHT22;24531;45.502;12.238;2023-12-22T03:34:03;7.10;99.90
38784;DHT22;24531;45.502;12.238;2023-12-22T03:36:28;7.10;99.90
38784;DHT22;24531;45.502;12.238;2023-12-22T03:38:54;7.10;99.90
38784;DHT22;24531;45.502;12.238;2023-12-22T03:41:19;7.00;99.90
38784;DHT22;24531;45.502;12.238;2023-12-22T03:43:45;7.20;99.90
38784;DHT22;24531;45.502;12.238;2023-12-22T03:46:11;7.10;99.90
38784;DHT22;24531;45.502;12.238;2023-12-22T03:48:36;7.30;99.90
38784;DHT22;24531;45.502;12.238;2023-12-22T03:51:02;7.30;99.90
38784;DHT22;24531;45.502;12.238;2023-12-22T03:53:28;7.20;99.90
38784;DHT22;24531;45.502;12.238;2023-12-22T03:55:54;7.40;99.90
38784;DHT22;24531;45.502;12.238;2023-12-22T03:58:20;7.40;99.90
38784;DHT22;24531;45.502;12.238;2023-12-22T04:00:45;7.30;99.90
38784;DHT22;24531;45.502;12.238;2023-12-22T04:03:11;7.30;99.90
38784;DHT22;24531;45.502;12.238;2023-12-22T04:05:36;7.30;99.90
38784;DHT22;24531;45.502;12.238;2023-12-22T04:08:02;7.20;99.90
38784;DHT22;24531;45.502;12.238;2023-12-22T04:10:27;7.20;99.90
38784;DHT22;24531;45.502;12.238;2023-12-22T04:12:53;7.20;99.90
38784;DHT22;24531;45.502;12.238;2023-12-22T04:15:19;7.30;99.90
38784;DHT22;24531;45.502;12.238;2023-12-22T04:17:44;7.30;99.90
38784;DHT22;24531;45.502;12.238;2023-12-22T04:20:10;7.40;99.90
38784;DHT22;24531;45.502;12.238;2023-12-22T04:22:35;7.40;99.90
38784;DHT22;24531;45.502;12.238;2023-12-22T04:25:01;7.50;99.90
38784;DHT22;24531;45.502;12.238;2023-12-22T04:27:27;7.50;99.90
38784;DHT22;24531;45.502;12.238;2023-12-22T04:29:52;7.40;99.90
38784;DHT22;24531;45.502;12.238;2023-12-22T04:32:18;7.40;99.90
38784;DHT22;24531;45.502;12.238;2023-12-22T04:34:43;7.40;99.90
38784;DHT22;24531;45.502;12.238;2023-12-22T04:37:09;7.40;99.90
38784;DHT22;24531;45.502;12.238;2023-12-22T04:39:36;7.50;99.90
38784;DHT22;24531;45.502;12.238;2023-12-22T04:42:01;7.40;99.90
38784;DHT22;24531;45.502;12.238;2023-12-22T04:44:27;7.40;99.90
38784;DHT22;24531;45.502;12.238;2023-12-22T04:46:52;7.50;99.90
38784;DHT22;24531;45.502;12.238;2023-12-22T04:49:18;7.50;99.90
38784;DHT22;24531;45.502;12.238;2023-12-22T04:51:44;7.50;99.90
38784;DHT22;24531;45.502;12.238;2023-12-22T04:54:09;7.40;99.90
38784;DHT22;24531;45.502;12.238;2023-12-22T04:56:35;7.40;99.90
38784;DHT22;24531;45.502;12.238;2023-12-22T04:59:01;7.40;99.90
38784;DHT22;24531;45.502;12.238;2023-12-22T05:01:26;7.40;99.90
38784;DHT22;24531;45.502;12.238;2023-12-22T05:03:52;7.40;99.90
38784;DHT22;24531;45.502;12.238;2023-12-22T05:06:19;7.30;99.90
38784;DHT22;24531;45.502;12.238;2023-12-22T05:08:45;7.30;99.90
38784;DHT22;24531;45.502;12.238;2023-12-22T05:11:11;7.40;99.90
38784;DHT22;24531;45.502;12.238;2023-12-22T05:13:36;7.30;99.90
38784;DHT22;24531;45.502;12.238;2023-12-22T05:16:02;7.30;99.90
38784;DHT22;24531;45.502;12.238;2023-12-22T05:18:29;7.30;99.90
38784;DHT22;24531;45.502;12.238;2023-12-22T05:20:55;7.20;99.90
38784;DHT22;24531;45.502;12.238;2023-12-22T05:23:21;7.30;99.90
38784;DHT22;24531;45.502;12.238;2023-12-22T05:25:47;7.20;99.90
38784;DHT22;24531;45.502;12.238;2023-12-22T05:28:13;7.20;99.90
38784;DHT22;24531;45.502;12.238;2023-12-22T05:30:38;7.10;99.90
38784;DHT22;24531;45.502;12.238;2023-12-22T05:33:04;7.00;99.90
38784;DHT22;24531;45.502;12.238;2023-12-22T05:35:29;6.90;99.90
38784;DHT22;24531;45.502;12.238;2023-12-22T05:37:55;7.00;99.90
38784;DHT22;24531;45.502;12.238;2023-12-22T05:40:20;7.00;99.90
38784;DHT22;24531;45.502;12.238;2023-12-22T05:42:46;6.90;99.90
38784;DHT22;24531;45.502;12.238;2023-12-22T05:45:12;6.80;99.90
38784;DHT22;24531;45.502;12.238;2023-12-22T05:47:38;6.80;99.90
38784;DHT22;24531;45.502;12.238;2023-12-22T05:50:04;6.90;99.90
38784;DHT22;24531;45.502;12.238;2023-12-22T05:52:29;6.90;99.90
38784;DHT22;24531;45.502;12.238;2023-12-22T05:54:55;6.70;99.90
38784;DHT22;24531;45.502;12.238;2023-12-22T05:57:21;6.60;99.90
38784;DHT22;24531;45.502;12.238;2023-12-22T05:59:46;6.70;99.90
38784;DHT22;24531;45.502;12.238;2023-12-22T06:02:12;6.80;99.90
38784;DHT22;24531;45.502;12.238;2023-12-22T06:04:38;6.60;99.90
38784;DHT22;24531;45.502;12.238;2023-12-22T06:07:04;6.50;99.90
38784;DHT22;24531;45.502;12.238;2023-12-22T06:09:30;6.50;99.90
38784;DHT22;24531;45.502;12.238;2023-12-22T06:11:56;6.50;99.90
38784;DHT22;24531;45.502;12.238;2023-12-22T06:14:21;6.50;99.90
38784;DHT22;24531;45.502;12.238;2023-12-22T06:16:47;6.40;99.90
38784;DHT22;24531;45.502;12.238;2023-12-22T06:19:13;6.50;99.90
38784;DHT22;24531;45.502;12.238;2023-12-22T06:21:39;6.50;99.90
38784;DHT22;24531;45.502;12.238;2023-12-22T06:24:05;6.60;99.90
38784;DHT22;24531;45.502;12.238;2023-12-22T06:26:31;6.50;99.90
38784;DHT22;24531;45.502;12.238;2023-12-22T06:28:57;6.60;99.90
38784;DHT22;24531;45.502;12.238;2023-12-22T06:31:22;6.60;99.90
38784;DHT22;24531;45.502;12.238;2023-12-22T06:33:51;6.60;99.90
38784;DHT22;24531;45.502;12.238;2023-12-22T06:36:21;6.70;99.90
38784;DHT22;24531;45.502;12.238;2023-12-22T06:38:47;6.60;99.90
38784;DHT22;24531;45.502;12.238;2023-12-22T06:41:27;6.50;99.90
38784;DHT22;24531;45.502;12.238;2023-12-22T06:43:53;6.70;99.90
38784;DHT22;24531;45.502;12.238;2023-12-22T06:46:20;6.60;99.90
38784;DHT22;24531;45.502;12.238;2023-12-22T06:48:47;6.50;99.90
38784;DHT22;24531;45.502;12.238;2023-12-22T06:53:47;6.50;99.90
38784;DHT22;24531;45.502;12.238;2023-12-22T06:56:20;6.60;99.90
38784;DHT22;24531;45.502;12.238;2023-12-22T06:58:48;6.60;99.90
38784;DHT22;24531;45.502;12.238;2023-12-22T07:03:46;6.60;99.90
38784;DHT22;24531;45.502;12.238;2023-12-22T07:06:16;6.60;99.90
38784;DHT22;24531;45.502;12.238;2023-12-22T07:08:42;6.60;99.90
38784;DHT22;24531;45.502;12.238;2023-12-22T07:11:12;6.60;99.90
38784;DHT22;24531;45.502;12.238;2023-12-22T07:13:38;6.60;99.90
38784;DHT22;24531;45.502;12.238;2023-12-22T07:16:04;6.50;99.90
38784;DHT22;24531;45.502;12.238;2023-12-22T07:18:30;6.40;99.90
38784;DHT22;24531;45.502;12.238;2023-12-22T07:21:00;6.50;99.90
38784;DHT22;24531;45.502;12.238;2023-12-22T07:23:25;6.40;99.90
38784;DHT22;24531;45.502;12.238;2023-12-22T07:25:51;6.40;99.90
38784;DHT22;24531;45.502;12.238;2023-12-22T07:28:17;6.30;99.90
38784;DHT22;24531;45.502;12.238;2023-12-22T07:30:42;6.20;99.90
38784;DHT22;24531;45.502;12.238;2023-12-22T07:33:08;6.20;99.90
38784;DHT22;24531;45.502;12.238;2023-12-22T07:35:33;6.20;99.90
38784;DHT22;24531;45.502;12.238;2023-12-22T07:38:00;6.40;99.90
38784;DHT22;24531;45.502;12.238;2023-12-22T07:40:25;6.50;99.90
38784;DHT22;24531;45.502;12.238;2023-12-22T07:42:51;6.70;99.90
38784;DHT22;24531;45.502;12.238;2023-12-22T07:45:17;6.90;99.90
38784;DHT22;24531;45.502;12.238;2023-12-22T07:47:42;6.90;99.90
38784;DHT22;24531;45.502;12.238;2023-12-22T07:50:08;6.80;99.90
38784;DHT22;24531;45.502;12.238;2023-12-22T07:52:37;6.90;99.90
38784;DHT22;24531;45.502;12.238;2023-12-22T07:55:08;7.00;99.90
38784;DHT22;24531;45.502;12.238;2023-12-22T07:57:39;7.10;99.90
38784;DHT22;24531;45.502;12.238;2023-12-22T08:00:05;7.20;99.90
38784;DHT22;24531;45.502;12.238;2023-12-22T08:02:31;7.30;99.90
38784;DHT22;24531;45.502;12.238;2023-12-22T08:05:00;7.30;99.90
38784;DHT22;24531;45.502;12.238;2023-12-22T08:07:25;7.40;99.90
38784;DHT22;24531;45.502;12.238;2023-12-22T08:09:51;7.40;99.90
38784;DHT22;24531;45.502;12.238;2023-12-22T08:12:16;7.40;99.90
38784;DHT22;24531;45.502;12.238;2023-12-22T08:14:42;7.50;99.90
38784;DHT22;24531;45.502;12.238;2023-12-22T08:17:08;7.50;99.90
38784;DHT22;24531;45.502;12.238;2023-12-22T08:19:35;7.60;99.90
38784;DHT22;24531;45.502;12.238;2023-12-22T08:22:01;7.80;99.90
38784;DHT22;24531;45.502;12.238;2023-12-22T08:24:26;7.80;99.90
38784;DHT22;24531;45.502;12.238;2023-12-22T08:26:52;7.90;99.90
38784;DHT22;24531;45.502;12.238;2023-12-22T08:29:18;8.00;99.90
38784;DHT22;24531;45.502;12.238;2023-12-22T08:31:44;8.10;99.90
38784;DHT22;24531;45.502;12.238;2023-12-22T08:34:10;8.10;99.90
38784;DHT22;24531;45.502;12.238;2023-12-22T08:36:36;8.10;99.90
38784;DHT22;24531;45.502;12.238;2023-12-22T08:39:01;8.00;99.90
38784;DHT22;24531;45.502;12.238;2023-12-22T08:41:27;8.00;99.90
38784;DHT22;24531;45.502;12.238;2023-12-22T08:43:53;8.00;99.90
38784;DHT22;24531;45.502;12.238;2023-12-22T08:46:18;8.00;99.90
38784;DHT22;24531;45.502;12.238;2023-12-22T08:48:44;8.10;99.90
38784;DHT22;24531;45.502;12.238;2023-12-22T08:51:09;8.10;99.90
38784;DHT22;24531;45.502;12.238;2023-12-22T08:53:35;8.20;99.90
38784;DHT22;24531;45.502;12.238;2023-12-22T08:56:03;8.40;99.90
38784;DHT22;24531;45.502;12.238;2023-12-22T08:58:29;8.50;99.90
38784;DHT22;24531;45.502;12.238;2023-12-22T09:00:55;8.60;99.90
38784;DHT22;24531;45.502;12.238;2023-12-22T09:03:20;8.70;99.90
38784;DHT22;24531;45.502;12.238;2023-12-22T09:05:46;8.70;99.90
38784;DHT22;24531;45.502;12.238;2023-12-22T09:08:12;8.70;99.90
38784;DHT22;24531;45.502;12.238;2023-12-22T09:10:38;8.80;99.90
38784;DHT22;24531;45.502;12.238;2023-12-22T09:13:04;8.90;99.90
38784;DHT22;24531;45.502;12.238;2023-12-22T09:15:29;9.10;99.90
38784;DHT22;24531;45.502;12.238;2023-12-22T09:17:55;9.20;99.90
38784;DHT22;24531;45.502;12.238;2023-12-22T09:20:21;9.30;99.90
38784;DHT22;24531;45.502;12.238;2023-12-22T09:22:47;9.30;99.90
38784;DHT22;24531;45.502;12.238;2023-12-22T09:25:13;9.40;99.90
38784;DHT22;24531;45.502;12.238;2023-12-22T09:27:39;9.50;99.90
38784;DHT22;24531;45.502;12.238;2023-12-22T09:30:05;9.60;99.90
38784;DHT22;24531;45.502;12.238;2023-12-22T09:32:34;9.70;99.90
38784;DHT22;24531;45.502;12.238;2023-12-22T09:35:00;9.80;99.90
38784;DHT22;24531;45.502;12.238;2023-12-22T09:37:26;9.90;99.90
38784;DHT22;24531;45.502;12.238;2023-12-22T09:39:52;9.90;99.90
38784;DHT22;24531;45.502;12.238;2023-12-22T09:42:19;10.00;99.90
38784;DHT22;24531;45.502;12.238;2023-12-22T09:44:46;10.00;99.90
38784;DHT22;24531;45.502;12.238;2023-12-22T09:47:14;10.10;99.90
38784;DHT22;24531;45.502;12.238;2023-12-22T09:49:42;10.10;99.90
38784;DHT22;24531;45.502;12.238;2023-12-22T09:52:08;10.20;99.90
38784;DHT22;24531;45.502;12.238;2023-12-22T09:54:34;10.40;99.90
38784;DHT22;24531;45.502;12.238;2023-12-22T09:57:02;10.50;99.90
38784;DHT22;24531;45.502;12.238;2023-12-22T09:59:29;10.50;99.90
38784;DHT22;24531;45.502;12.238;2023-12-22T10:01:56;10.50;99.90
38784;DHT22;24531;45.502;12.238;2023-12-22T10:04:23;10.50;99.90
38784;DHT22;24531;45.502;12.238;2023-12-22T10:11:44;10.60;99.90
38784;DHT22;24531;45.502;12.238;2023-12-22T10:14:10;10.60;99.90
38784;DHT22;24531;45.502;12.238;2023-12-22T10:16:37;10.60;99.90
38784;DHT22;24531;45.502;12.238;2023-12-22T10:19:07;10.70;99.90
38784;DHT22;24531;45.502;12.238;2023-12-22T10:21:33;10.70;99.90
38784;DHT22;24531;45.502;12.238;2023-12-22T10:23:59;10.70;99.90
38784;DHT22;24531;45.502;12.238;2023-12-22T10:26:24;10.70;99.90
38784;DHT22;24531;45.502;12.238;2023-12-22T10:28:50;10.80;99.90
38784;DHT22;24531;45.502;12.238;2023-12-22T10:31:17;10.80;99.90
38784;DHT22;24531;45.502;12.238;2023-12-22T10:33:45;10.80;99.90
38784;DHT22;24531;45.502;12.238;2023-12-22T10:36:11;10.80;99.90
38784;DHT22;24531;45.502;12.238;2023-12-22T10:38:37;10.90;99.90
38784;DHT22;24531;45.502;12.238;2023-12-22T10:41:06;11.00;99.90
38784;DHT22;24531;45.502;12.238;2023-12-22T10:43:40;11.00;99.90
38784;DHT22;24531;45.502;12.238;2023-12-22T10:46:09;11.00;99.90
38784;DHT22;24531;45.502;12.238;2023-12-22T10:48:36;11.10;99.90
38784;DHT22;24531;45.502;12.238;2023-12-22T10:51:01;11.20;99.90
38784;DHT22;24531;45.502;12.238;2023-12-22T10:53:27;11.20;99.90
38784;DHT22;24531;45.502;12.238;2023-12-22T10:55:53;11.20;99.90
38784;DHT22;24531;45.502;12.238;2023-12-22T10:58:19;11.20;99.90
38784;DHT22;24531;45.502;12.238;2023-12-22T11:00:45;11.30;99.90
38784;DHT22;24531;45.502;12.238;2023-12-22T11:03:17;11.30;99.90
38784;DHT22;24531;45.502;12.238;2023-12-22T11:05:46;11.40;99.90
38784;DHT22;24531;45.502;12.238;2023-12-22T11:08:12;11.40;99.90
38784;DHT22;24531;45.502;12.238;2023-12-22T11:10:42;11.50;99.90
38784;DHT22;24531;45.502;12.238;2023-12-22T11:13:12;11.50;99.90
38784;DHT22;24531;45.502;12.238;2023-12-22T11:15:39;11.50;99.90
38784;DHT22;24531;45.502;12.238;2023-12-22T11:18:07;11.60;99.90
38784;DHT22;24531;45.502;12.238;2023-12-22T11:20:33;11.60;99.90
38784;DHT22;24531;45.502;12.238;2023-12-22T11:23:00;11.60;99.90
38784;DHT22;24531;45.502;12.238;2023-12-22T11:25:28;11.70;99.90
38784;DHT22;24531;45.502;12.238;2023-12-22T11:27:55;11.70;99.90
38784;DHT22;24531;45.502;12.238;2023-12-22T11:30:22;11.80;99.90
38784;DHT22;24531;45.502;12.238;2023-12-22T11:32:53;11.80;99.90
38784;DHT22;24531;45.502;12.238;2023-12-22T11:35:19;11.90;99.90
38784;DHT22;24531;45.502;12.238;2023-12-22T11:37:45;12.00;99.90
38784;DHT22;24531;45.502;12.238;2023-12-22T11:40:12;12.00;99.90
38784;DHT22;24531;45.502;12.238;2023-12-22T11:42:41;12.10;99.90
38784;DHT22;24531;45.502;12.238;2023-12-22T11:45:12;12.00;99.90
38784;DHT22;24531;45.502;12.238;2023-12-22T11:47:42;12.10;99.90
38784;DHT22;24531;45.502;12.238;2023-12-22T11:50:11;12.20;99.90
38784;DHT22;24531;45.502;12.238;2023-12-22T11:52:37;12.20;99.90
38784;DHT22;24531;45.502;12.238;2023-12-22T11:55:04;12.20;99.90
38784;DHT22;24531;45.502;12.238;2023-12-22T11:57:32;12.30;99.90
38784;DHT22;24531;45.502;12.238;2023-12-22T12:00:05;12.30;99.90
38784;DHT22;24531;45.502;12.238;2023-12-22T12:02:35;12.30;99.90
38784;DHT22;24531;45.502;12.238;2023-12-22T12:05:01;12.40;99.90
38784;DHT22;24531;45.502;12.238;2023-12-22T12:07:47;12.40;99.90
38784;DHT22;24531;45.502;12.238;2023-12-22T12:13:06;12.40;99.90
38784;DHT22;24531;45.502;12.238;2023-12-22T12:15:33;12.40;99.90
38784;DHT22;24531;45.502;12.238;2023-12-22T12:17:59;12.40;99.90
38784;DHT22;24531;45.502;12.238;2023-12-22T12:20:25;12.40;99.90
38784;DHT22;24531;45.502;12.238;2023-12-22T12:22:53;12.30;99.90
38784;DHT22;24531;45.502;12.238;2023-12-22T12:25:28;12.30;99.90
38784;DHT22;24531;45.502;12.238;2023-12-22T12:28:04;12.30;99.90
38784;DHT22;24531;45.502;12.238;2023-12-22T12:30:30;12.30;99.90
38784;DHT22;24531;45.502;12.238;2023-12-22T12:33:19;12.30;99.90
38784;DHT22;24531;45.502;12.238;2023-12-22T12:35:46;12.30;99.90
38784;DHT22;24531;45.502;12.238;2023-12-22T12:38:12;12.30;99.90
38784;DHT22;24531;45.502;12.238;2023-12-22T12:40:39;12.30;99.90
38784;DHT22;24531;45.502;12.238;2023-12-22T12:43:06;12.30;99.90
38784;DHT22;24531;45.502;12.238;2023-12-22T12:45:31;12.30;99.90
38784;DHT22;24531;45.502;12.238;2023-12-22T12:47:58;12.40;99.90
38784;DHT22;24531;45.502;12.238;2023-12-22T12:50:24;12.50;99.90
38784;DHT22;24531;45.502;12.238;2023-12-22T12:52:51;12.50;99.90
38784;DHT22;24531;45.502;12.238;2023-12-22T12:55:21;12.60;99.90
38784;DHT22;24531;45.502;12.238;2023-12-22T12:57:54;12.60;99.90
38784;DHT22;24531;45.502;12.238;2023-12-22T13:02:59;12.70;99.90
38784;DHT22;24531;45.502;12.238;2023-12-22T13:05:25;12.70;99.90
38784;DHT22;24531;45.502;12.238;2023-12-22T13:07:51;12.70;99.90
38784;DHT22;24531;45.502;12.238;2023-12-22T13:10:24;12.80;99.90
38784;DHT22;24531;45.502;12.238;2023-12-22T13:12:50;12.80;99.90
38784;DHT22;24531;45.502;12.238;2023-12-22T13:15:19;12.80;99.90
38784;DHT22;24531;45.502;12.238;2023-12-22T13:17:46;12.80;99.90
38784;DHT22;24531;45.502;12.238;2023-12-22T13:20:11;12.80;99.90
38784;DHT22;24531;45.502;12.238;2023-12-22T13:22:37;12.80;99.90
38784;DHT22;24531;45.502;12.238;2023-12-22T13:25:03;12.80;99.90
38784;DHT22;24531;45.502;12.238;2023-12-22T13:27:29;12.70;99.90
38784;DHT22;24531;45.502;12.238;2023-12-22T13:29:55;12.60;99.90
38784;DHT22;24531;45.502;12.238;2023-12-22T13:32:22;12.60;99.90
38784;DHT22;24531;45.502;12.238;2023-12-22T13:34:52;12.50;99.90
38784;DHT22;24531;45.502;12.238;2023-12-22T13:37:19;12.60;99.90
38784;DHT22;24531;45.502;12.238;2023-12-22T13:39:46;12.60;99.90
38784;DHT22;24531;45.502;12.238;2023-12-22T13:42:18;12.60;99.90
38784;DHT22;24531;45.502;12.238;2023-12-22T13:44:47;12.60;99.90
38784;DHT22;24531;45.502;12.238;2023-12-22T13:47:18;12.60;99.90
38784;DHT22;24531;45.502;12.238;2023-12-22T13:49:43;12.50;99.90
38784;DHT22;24531;45.502;12.238;2023-12-22T13:52:24;12.50;99.90
38784;DHT22;24531;45.502;12.238;2023-12-22T13:54:51;12.50;99.90
38784;DHT22;24531;45.502;12.238;2023-12-22T13:57:21;12.60;99.90
38784;DHT22;24531;45.502;12.238;2023-12-22T13:59:47;12.60;99.90
38784;DHT22;24531;45.502;12.238;2023-12-22T14:02:13;12.60;99.90
38784;DHT22;24531;45.502;12.238;2023-12-22T14:04:38;12.50;99.90
38784;DHT22;24531;45.502;12.238;2023-12-22T14:07:04;12.50;99.90
38784;DHT22;24531;45.502;12.238;2023-12-22T14:09:29;12.60;99.90
38784;DHT22;24531;45.502;12.238;2023-12-22T14:11:59;12.50;99.90
38784;DHT22;24531;45.502;12.238;2023-12-22T14:14:25;12.40;99.90
38784;DHT22;24531;45.502;12.238;2023-12-22T14:16:50;12.40;99.90
38784;DHT22;24531;45.502;12.238;2023-12-22T14:19:16;12.30;99.90
38784;DHT22;24531;45.502;12.238;2023-12-22T14:21:41;12.30;99.90
38784;DHT22;24531;45.502;12.238;2023-12-22T14:24:07;12.30;99.90
38784;DHT22;24531;45.502;12.238;2023-12-22T14:26:33;12.20;99.90
38784;DHT22;24531;45.502;12.238;2023-12-22T14:28:58;12.20;99.90
38784;DHT22;24531;45.502;12.238;2023-12-22T14:31:24;12.10;99.90
38784;DHT22;24531;45.502;12.238;2023-12-22T14:33:49;12.20;99.90
38784;DHT22;24531;45.502;12.238;2023-12-22T14:36:15;12.10;99.90
38784;DHT22;24531;45.502;12.238;2023-12-22T14:38:40;12.10;99.90
38784;DHT22;24531;45.502;12.238;2023-12-22T14:41:06;12.20;99.90
38784;DHT22;24531;45.502;12.238;2023-12-22T14:43:32;12.20;99.90
38784;DHT22;24531;45.502;12.238;2023-12-22T14:45:57;12.10;99.90
38784;DHT22;24531;45.502;12.238;2023-12-22T14:48:23;12.10;99.90
38784;DHT22;24531;45.502;12.238;2023-12-22T14:50:48;12.10;99.90
38784;DHT22;24531;45.502;12.238;2023-12-22T14:53:14;12.00;99.90
38784;DHT22;24531;45.502;12.238;2023-12-22T14:55:40;12.00;99.90
38784;DHT22;24531;45.502;12.238;2023-12-22T14:58:06;11.90;99.90
38784;DHT22;24531;45.502;12.238;2023-12-22T15:00:33;11.90;99.90
38784;DHT22;24531;45.502;12.238;2023-12-22T15:02:58;11.90;99.90
38784;DHT22;24531;45.502;12.238;2023-12-22T15:05:24;11.90;99.90
38784;DHT22;24531;45.502;12.238;2023-12-22T15:07:55;11.90;99.90
38784;DHT22;24531;45.502;12.238;2023-12-22T15:10:20;11.80;99.90
38784;DHT22;24531;45.502;12.238;2023-12-22T15:12:46;11.80;99.90
38784;DHT22;24531;45.502;12.238;2023-12-22T15:15:13;11.70;99.90
38784;DHT22;24531;45.502;12.238;2023-12-22T15:17:39;11.70;99.90
38784;DHT22;24531;45.502;12.238;2023-12-22T15:20:04;11.60;99.90
38784;DHT22;24531;45.502;12.238;2023-12-22T15:22:32;11.50;99.90
38784;DHT22;24531;45.502;12.238;2023-12-22T15:24:57;11.60;99.90
38784;DHT22;24531;45.502;12.238;2023-12-22T15:27:23;11.40;99.90
38784;DHT22;24531;45.502;12.238;2023-12-22T15:29:49;11.40;99.90
38784;DHT22;24531;45.502;12.238;2023-12-22T15:32:15;11.40;99.90
38784;DHT22;24531;45.502;12.238;2023-12-22T15:34:41;11.40;99.90
38784;DHT22;24531;45.502;12.238;2023-12-22T15:37:07;11.40;99.90